KBLU/BLU METAR and TAF weather

Enter ICAO airport designator
Station Type Date Time Source
KBLU METAR 2021/04/17 01:52 UTC NOAA

KBLU 170152Z AUTO VRB04KT 10SM BKN095 12/M07 A3007 RMK AO2 SLP144 T01221072 $


Station Type Date Time Source
KBLU Decoded METAR 2021/04/17 01:52 UTC NOAA

BLUE CANYON AIRPORT, CA, United States (KBLU) 39-17N 120-42W 1609M
Apr 16, 2021 - 09:52 PM EDT / 2021.04.17 0152 UTC
Wind: Variable at 5 MPH (4 KT):0
Visibility: 10 mile(s):0
Sky conditions: mostly cloudy
Temperature: 54.0 F (12.2 C)
Dew Point: 19.0 F (-7.2 C)
Relative Humidity: 25%
Pressure (altimeter): 30.07 in. Hg (1018 hPa)
ob: KBLU 170152Z AUTO VRB04KT 10SM BKN095 12/M07 A3007 RMK AO2 SLP144 T01221072
cycle: 2

Station Type Date Time Source
KBLU TAF UTC NOAA

Error!

Example: see airport list